Time;durP1;ratioP1;P1;durP2;ratioP2;P2;SDS_P1;SDS_P2;PMS_P1;PMS_P2;Temp;Humidity;BMP_temperature;BMP_pressure;BME280_temperature;BME280_humidity;BME280_pressure;Samples;Min_cycle;Max_cycle;Signal;HPM_P1;HPM_P2
2022/08/12 00:44:43;;;;;;;7.10;3.10;;;19.60;99.90;;;;;;4916940;29;20199;-78
2022/08/12 00:47:12;;;;;;;6.40;3.43;;;19.60;99.90;;;;;;4899906;29;20223;-76
2022/08/12 00:49:54;;;;;;;5.73;3.30;;;19.60;99.90;;;;;;4900390;29;20199;-79
2022/08/12 00:52:23;;;;;;;6.20;2.90;;;19.50;99.90;;;;;;4901049;29;20207;-79
2022/08/12 00:54:56;;;;;;;6.97;3.00;;;19.50;99.90;;;;;;4901743;29;20266;-78
2022/08/12 00:57:28;;;;;;;5.07;3.07;;;19.40;99.90;;;;;;4921421;29;20204;-78
2022/08/12 00:59:58;;;;;;;5.83;3.00;;;19.40;99.90;;;;;;4904403;29;20705;-77
2022/08/12 01:02:31;;;;;;;12.33;3.60;;;19.30;99.90;;;;;;4920122;29;20235;-79
2022/08/12 01:13:30;;;;;;;10.53;3.93;;;19.20;99.90;;;;;;4939116;29;20626;-78
2022/08/12 01:15:58;;;;;;;5.47;3.20;;;19.10;99.90;;;;;;4922011;29;20595;-78
2022/08/12 01:18:29;;;;;;;4.53;3.30;;;19.10;99.90;;;;;;4938981;29;20211;-77
2022/08/12 01:21:11;;;;;;;6.10;3.20;;;19.10;99.90;;;;;;4938726;29;20242;-79
2022/08/12 01:24:06;;;;;;;6.73;3.50;;;19.00;99.90;;;;;;4921576;29;20202;-79
2022/08/12 01:26:54;;;;;;;4.63;3.00;;;19.00;99.90;;;;;;4921698;29;20222;-78
2022/08/12 01:29:30;;;;;;;5.27;3.20;;;19.00;99.90;;;;;;4905784;29;20289;-79
2022/08/12 01:32:07;;;;;;;13.47;3.80;;;19.00;99.90;;;;;;4921547;29;20199;-78
2022/08/12 01:34:38;;;;;;;4.57;3.07;;;19.00;99.90;;;;;;4921680;29;20191;-78
2022/08/12 01:37:07;;;;;;;9.47;3.10;;;18.90;99.90;;;;;;4921664;29;20688;-77
2022/08/12 01:39:52;;;;;;;6.87;2.93;;;18.80;99.90;;;;;;4921767;29;20569;-77
2022/08/12 01:42:50;;;;;;;7.77;3.60;;;18.80;99.90;;;;;;4938765;29;20548;-77
2022/08/12 01:45:23;;;;;;;7.23;3.57;;;18.80;99.90;;;;;;4938474;29;20205;-79
2022/08/12 01:47:53;;;;;;;5.93;3.33;;;18.80;99.90;;;;;;4921251;29;20284;-79
2022/08/12 01:50:53;;;;;;;5.50;3.23;;;18.80;99.90;;;;;;4921365;29;20527;-76
2022/08/12 01:53:35;;;;;;;5.37;3.27;;;18.70;99.90;;;;;;4921056;29;20199;-76
2022/08/12 01:56:20;;;;;;;5.47;3.10;;;18.70;99.90;;;;;;4921075;29;20290;-77
2022/08/12 02:01:40;;;;;;;6.17;2.97;;;18.70;99.90;;;;;;4921152;29;20239;-77
2022/08/12 02:13:38;;;;;;;5.10;3.00;;;18.70;99.90;;;;;;4918797;29;20207;-77
2022/08/12 02:16:40;;;;;;;5.20;3.00;;;18.70;99.90;;;;;;4920745;29;20297;-77
2022/08/12 02:19:25;;;;;;;8.00;3.00;;;18.70;99.90;;;;;;4921042;29;20604;-78
2022/08/12 02:22:13;;;;;;;4.23;3.07;;;18.70;99.90;;;;;;4937593;29;20621;-76
2022/08/12 02:24:42;;;;;;;8.20;3.30;;;18.70;99.90;;;;;;4920664;29;20233;-76
2022/08/12 02:27:12;;;;;;;6.50;3.23;;;18.70;99.90;;;;;;4937704;29;20342;-79
2022/08/12 02:29:39;;;;;;;4.70;3.27;;;18.70;99.90;;;;;;4920815;29;20191;-77
2022/08/12 02:32:07;;;;;;;3.67;2.97;;;18.80;99.90;;;;;;4920605;29;20227;-76
2022/08/12 02:34:34;;;;;;;4.77;2.70;;;18.70;99.90;;;;;;4920340;29;20229;-77
2022/08/12 02:37:02;;;;;;;3.67;2.80;;;18.70;99.90;;;;;;4920374;29;20237;-77
2022/08/12 02:39:32;;;;;;;5.30;2.97;;;18.70;99.90;;;;;;4920418;29;20202;-77
2022/08/12 02:42:02;;;;;;;3.50;2.70;;;18.80;99.90;;;;;;4937414;29;20215;-78
2022/08/12 02:44:35;;;;;;;4.23;2.97;;;18.80;99.90;;;;;;4905605;29;20218;-78
2022/08/12 02:47:05;;;;;;;8.83;3.53;;;18.70;99.90;;;;;;4901349;29;20306;-77
2022/08/12 02:49:40;;;;;;;5.03;3.37;;;18.80;99.90;;;;;;4901343;29;20634;-77
2022/08/12 02:52:09;;;;;;;7.97;3.10;;;18.70;99.90;;;;;;4916855;29;20238;-80
2022/08/12 02:54:38;;;;;;;6.27;3.27;;;18.70;99.90;;;;;;4918331;29;20729;-81
2022/08/12 02:57:05;;;;;;;6.37;3.70;;;18.60;99.90;;;;;;4917350;29;20242;-81
2022/08/12 02:59:34;;;;;;;5.47;3.30;;;18.60;99.90;;;;;;4901710;29;20262;-82
2022/08/12 03:02:02;;;;;;;5.53;3.10;;;18.60;99.90;;;;;;4917046;29;20713;-79
2022/08/12 03:04:38;;;;;;;4.60;3.30;;;18.50;99.90;;;;;;4916892;29;20246;-83
2022/08/12 03:07:13;;;;;;;4.53;2.97;;;18.50;99.90;;;;;;4916238;29;20231;-80
2022/08/12 03:10:00;;;;;;;5.20;3.10;;;18.50;99.90;;;;;;4904442;29;20218;-79
2022/08/12 03:12:36;;;;;;;6.27;3.20;;;18.50;99.90;;;;;;4919878;29;20225;-80
2022/08/12 03:15:17;;;;;;;6.67;3.10;;;18.50;99.90;;;;;;4920338;29;20286;-80
2022/08/12 03:17:50;;;;;;;15.30;3.90;;;18.50;99.90;;;;;;4936455;29;20556;-78
2022/08/12 03:20:39;;;;;;;6.63;3.40;;;18.50;99.90;;;;;;4936561;29;20195;-80
2022/08/12 03:23:14;;;;;;;6.27;3.07;;;18.50;99.90;;;;;;4936689;29;20202;-79
2022/08/12 03:25:58;;;;;;;3.87;3.30;;;18.50;99.90;;;;;;4936688;29;20211;-80
2022/08/12 03:31:12;;;;;;;4.60;3.30;;;18.50;99.90;;;;;;4935946;29;20290;-78
2022/08/12 03:33:43;;;;;;;7.07;3.37;;;18.50;99.90;;;;;;4919413;29;20207;-80
2022/08/12 03:36:28;;;;;;;4.27;3.10;;;18.50;99.90;;;;;;4919215;29;20282;-78
2022/08/12 03:42:20;;;;;;;4.60;3.00;;;18.50;99.90;;;;;;4919134;29;20707;-81
2022/08/12 04:01:56;;;;;;;5.27;3.50;;;18.40;99.90;;;;;;4840067;29;20320;-79
2022/08/12 04:04:34;;;;;;;7.97;3.40;;;18.40;99.90;;;;;;4825427;29;20213;-79
2022/08/12 04:07:08;;;;;;;5.00;3.30;;;18.40;99.90;;;;;;4840412;29;20221;-80
2022/08/12 04:09:39;;;;;;;4.53;3.30;;;18.40;99.90;;;;;;4959560;23;20232;-80
2022/08/12 04:14:59;;;;;;;4.83;3.27;;;18.40;99.90;;;;;;4974965;28;20205;-79
2022/08/12 04:17:27;;;;;;;6.67;3.30;;;18.40;99.90;;;;;;4942048;28;20211;-79
2022/08/12 04:19:58;;;;;;;5.50;3.50;;;18.30;99.90;;;;;;4942012;28;20197;-79
2022/08/12 04:22:29;;;;;;;5.80;3.13;;;18.40;99.90;;;;;;4957476;28;20205;-79
2022/08/12 04:24:59;;;;;;;4.10;3.30;;;18.40;99.90;;;;;;4967525;28;20229;-78
2022/08/12 04:27:30;;;;;;;6.00;3.33;;;18.40;99.90;;;;;;4938540;29;20234;-79
2022/08/12 04:29:57;;;;;;;5.43;3.60;;;18.40;99.90;;;;;;4937020;29;20202;-78
2022/08/12 04:32:46;;;;;;;4.93;3.30;;;18.40;99.90;;;;;;4955468;29;20566;-80
2022/08/12 04:35:17;;;;;;;5.53;3.47;;;18.50;99.90;;;;;;4938380;29;20569;-79
2022/08/12 04:37:46;;;;;;;4.87;3.50;;;18.60;99.90;;;;;;4937168;29;20202;-78
2022/08/12 04:40:31;;;;;;;4.53;3.27;;;18.60;99.90;;;;;;4926748;29;20198;-78
2022/08/12 04:42:59;;;;;;;5.53;3.17;;;18.70;99.90;;;;;;4937848;29;20187;-80
2022/08/12 04:48:18;;;;;;;5.87;3.40;;;18.80;99.90;;;;;;4254710;26;20594;-80
2022/08/12 04:50:46;;;;;;;5.60;3.33;;;18.90;99.90;;;;;;4937707;29;20597;-79
2022/08/12 04:53:14;;;;;;;4.47;3.37;;;19.00;99.90;;;;;;4937696;29;20382;-79
2022/08/12 04:55:41;;;;;;;3.97;3.10;;;18.90;99.90;;;;;;4955340;29;20685;-77
2022/08/12 04:58:09;;;;;;;6.60;3.40;;;19.00;99.90;;;;;;4937991;29;20209;-76
2022/08/12 05:00:37;;;;;;;5.63;3.30;;;19.00;99.90;;;;;;4955002;29;20190;-78
2022/08/12 05:03:05;;;;;;;5.37;3.30;;;19.10;99.90;;;;;;4952998;29;20236;-76
2022/08/12 05:05:33;;;;;;;3.47;3.10;;;19.10;99.90;;;;;;4937276;29;20226;-77
2022/08/12 05:08:06;;;;;;;6.70;3.50;;;19.20;99.90;;;;;;4920939;29;20725;-78
2022/08/12 05:10:33;;;;;;;6.00;3.30;;;19.30;99.90;;;;;;4918202;29;20209;-78
2022/08/12 05:13:06;;;;;;;8.17;3.50;;;19.30;99.90;;;;;;4935521;29;20274;-77
2022/08/12 05:15:36;;;;;;;10.47;4.13;;;19.40;99.90;;;;;;4922081;29;20198;-77
2022/08/12 05:18:23;;;;;;;4.90;3.50;;;19.50;99.90;;;;;;4939685;29;20198;-79
2022/08/12 05:20:50;;;;;;;4.50;3.20;;;19.60;99.90;;;;;;4937115;29;20210;-76
2022/08/12 05:23:21;;;;;;;10.97;3.67;;;19.60;99.90;;;;;;4936800;29;20202;-78
2022/08/12 05:25:50;;;;;;;8.53;3.70;;;19.60;99.90;;;;;;4936886;29;20779;-76
2022/08/12 05:28:17;;;;;;;6.70;3.83;;;19.70;99.90;;;;;;4937237;29;20309;-76
2022/08/12 05:30:45;;;;;;;5.97;3.50;;;19.80;99.90;;;;;;4937288;29;20236;-77
2022/08/12 05:33:14;;;;;;;8.87;3.50;;;19.80;99.90;;;;;;4936959;29;20222;-77
2022/08/12 05:35:44;;;;;;;4.77;3.63;;;19.90;99.90;;;;;;4937250;29;20207;-76
2022/08/12 05:41:00;;;;;;;6.73;3.47;;;20.00;99.90;;;;;;4929323;29;20297;-78
2022/08/12 05:43:27;;;;;;;5.63;3.50;;;20.10;99.90;;;;;;4920955;29;20220;-76
2022/08/12 05:45:54;;;;;;;5.63;3.90;;;20.20;99.90;;;;;;4940191;29;20206;-74
2022/08/12 05:48:22;;;;;;;6.33;4.00;;;20.20;99.90;;;;;;4940308;29;20244;-76
2022/08/12 05:50:51;;;;;;;9.17;3.90;;;20.10;99.90;;;;;;4940276;29;20261;-77
2022/08/12 05:53:18;;;;;;;11.43;4.00;;;20.00;99.90;;;;;;4940030;29;20239;-78
2022/08/12 05:55:45;;;;;;;5.83;3.77;;;20.10;99.90;;;;;;4957520;29;20613;-78
2022/08/12 05:58:12;;;;;;;7.83;3.60;;;20.20;99.90;;;;;;4939863;29;20639;-78
2022/08/12 06:00:41;;;;;;;5.97;3.60;;;20.20;99.90;;;;;;4940298;29;20197;-77
2022/08/12 06:03:08;;;;;;;5.37;3.70;;;20.20;99.90;;;;;;4939827;29;20620;-78
2022/08/12 06:05:36;;;;;;;6.17;3.73;;;20.30;99.90;;;;;;4940572;29;20293;-76
2022/08/12 06:08:21;;;;;;;5.83;3.50;;;20.30;99.90;;;;;;4939670;29;20229;-77
2022/08/12 06:10:48;;;;;;;9.63;4.03;;;20.30;99.90;;;;;;4939925;29;20237;-77
2022/08/12 06:13:17;;;;;;;5.30;3.80;;;20.40;99.90;;;;;;4939869;29;20212;-75
2022/08/12 06:16:08;;;;;;;5.13;3.73;;;20.40;99.90;;;;;;4956815;29;20194;-76
2022/08/12 06:18:39;;;;;;;3.63;3.33;;;20.60;99.90;;;;;;4956441;29;20191;-77
2022/08/12 06:21:08;;;;;;;6.37;3.60;;;20.70;99.90;;;;;;4925494;29;20262;-77
2022/08/12 06:23:37;;;;;;;7.13;3.70;;;21.00;99.90;;;;;;4955293;29;20236;-77
2022/08/12 06:26:10;;;;;;;9.23;4.10;;;21.10;99.90;;;;;;4923456;29;20227;-76
2022/08/12 06:28:38;;;;;;;11.10;4.20;;;21.40;99.90;;;;;;4926031;29;20226;-74
2022/08/12 06:31:06;;;;;;;6.73;3.87;;;21.50;99.90;;;;;;4939555;29;20196;-76
2022/08/12 06:33:52;;;;;;;4.70;3.83;;;21.50;99.90;;;;;;4939841;29;20679;-78
2022/08/12 06:36:39;;;;;;;5.20;3.63;;;21.50;99.90;;;;;;4957171;29;20546;-78
2022/08/12 06:39:09;;;;;;;5.10;3.40;;;21.50;99.90;;;;;;4925611;29;20210;-75
2022/08/12 06:44:49;;;;;;;5.27;3.60;;;21.50;99.90;;;;;;4926038;29;20613;-77
2022/08/12 06:47:18;;;;;;;5.27;3.63;;;21.40;99.90;;;;;;4934885;29;20231;-80
2022/08/12 06:49:48;;;;;;;4.87;3.60;;;21.30;99.90;;;;;;4956081;29;20547;-83
2022/08/12 06:52:23;;;;;;;6.63;3.70;;;21.40;99.90;;;;;;4935015;29;20683;-84
2022/08/12 06:55:18;;;;;;;4.90;3.70;;;21.60;99.90;;;;;;4921052;29;20199;-83
2022/08/12 07:00:46;;;;;;;5.33;3.50;;;21.60;99.90;;;;;;4943160;28;20261;-82
2022/08/12 07:03:20;;;;;;;6.03;3.57;;;21.50;99.90;;;;;;4944879;28;20186;-81
2022/08/12 07:05:49;;;;;;;4.90;3.73;;;21.60;99.90;;;;;;4960578;28;20205;-78
2022/08/12 07:08:17;;;;;;;5.30;3.50;;;21.80;99.90;;;;;;4945716;28;20210;-82
2022/08/12 07:10:58;;;;;;;4.77;3.40;;;21.80;99.90;;;;;;4944846;29;20218;-82
2022/08/12 07:13:31;;;;;;;4.47;3.37;;;21.90;99.90;;;;;;4944143;29;20190;-80
2022/08/12 07:15:58;;;;;;;8.23;4.13;;;21.90;99.90;;;;;;4959280;28;20198;-83
2022/08/12 07:18:34;;;;;;;4.60;3.70;;;22.10;99.90;;;;;;4954982;29;20201;-81
2022/08/12 07:21:05;;;;;;;4.40;3.60;;;22.20;99.90;;;;;;4924615;29;20203;-75
2022/08/12 07:23:34;;;;;;;4.50;3.73;;;22.30;99.90;;;;;;4938055;29;20234;-82
2022/08/12 07:26:04;;;;;;;6.97;3.57;;;22.40;99.90;;;;;;4923553;29;20314;-79
2022/08/12 07:28:49;;;;;;;5.37;3.60;;;22.50;99.90;;;;;;4919927;29;20215;-89
2022/08/12 07:31:25;;;;;;;6.30;3.80;;;22.60;99.90;;;;;;4941890;29;20289;-83
2022/08/12 07:33:54;;;;;;;4.40;3.53;;;22.50;99.90;;;;;;4917077;29;20225;-82
2022/08/12 07:36:26;;;;;;;4.63;3.67;;;22.60;99.90;;;;;;4921179;29;20203;-81
2022/08/12 07:38:59;;;;;;;4.73;3.70;;;22.70;99.90;;;;;;4925857;29;20644;-83
2022/08/12 07:41:30;;;;;;;5.50;3.73;;;22.70;99.90;;;;;;4921939;29;20589;-79
2022/08/12 07:44:10;;;;;;;4.90;3.80;;;22.80;99.90;;;;;;4935743;29;20254;-79
2022/08/12 07:46:59;;;;;;;7.10;3.53;;;22.80;99.90;;;;;;4918835;29;20207;-81
2022/08/12 07:49:26;;;;;;;3.70;3.23;;;23.00;99.90;;;;;;4942004;29;20247;-76
2022/08/12 07:54:24;;;;;;;7.22;3.70;;;23.20;99.90;;;;;;4944113;28;20238;-77
2022/08/12 07:56:51;;;;;;;3.95;3.50;;;23.30;99.90;;;;;;4929750;29;20205;-75
2022/08/12 07:59:18;;;;;;;5.28;3.08;;;23.50;99.90;;;;;;4930561;29;20199;-79
2022/08/12 08:01:52;;;;;;;4.47;3.40;;;23.60;99.90;;;;;;4941487;29;20608;-80
2022/08/12 08:07:29;;;;;;;5.22;3.20;;;23.80;99.90;;;;;;4870324;29;20264;-77
2022/08/12 08:10:02;;;;;;;3.78;2.65;;;24.00;99.90;;;;;;4887185;29;20584;-79
2022/08/12 08:13:03;;;;;;;3.10;2.78;;;24.30;99.90;;;;;;4878438;29;20300;-80
2022/08/12 08:15:34;;;;;;;5.15;3.20;;;24.50;99.90;;;;;;4887112;29;20204;-79
2022/08/12 08:18:19;;;;;;;4.15;3.00;;;25.00;99.90;;;;;;4861226;29;20216;-78
2022/08/12 08:20:55;;;;;;;4.82;2.88;;;25.00;99.90;;;;;;4875095;29;20201;-76
2022/08/12 08:26:23;;;;;;;4.88;3.00;;;25.20;99.90;;;;;;4860306;29;20312;-80
2022/08/12 08:28:50;;;;;;;3.17;2.83;;;25.40;99.90;;;;;;4848930;29;20281;-79
2022/08/12 08:31:21;;;;;;;3.80;3.15;;;25.80;99.90;;;;;;4860504;29;20285;-77
2022/08/12 08:33:48;;;;;;;4.93;2.95;;;26.30;99.90;;;;;;4851484;29;20212;-81
2022/08/12 08:36:53;;;;;;;4.50;3.03;;;26.40;99.90;;;;;;4902409;29;20195;-78
2022/08/12 08:39:26;;;;;;;5.40;3.20;;;26.70;99.90;;;;;;4899785;29;20200;-78
2022/08/12 08:45:00;;;;;;;3.25;2.83;;;27.20;99.90;;;;;;4912987;29;20261;-79
2022/08/12 08:47:27;;;;;;;3.85;2.90;;;28.20;99.90;;;;;;4915912;29;20552;-80
2022/08/12 08:49:59;;;;;;;4.35;2.60;;;28.70;99.90;;;;;;4935189;29;20226;-81
2022/08/12 08:52:26;;;;;;;4.05;2.72;;;28.70;99.90;;;;;;4912606;23;20187;-80
2022/08/12 08:55:12;;;;;;;3.85;2.70;;;28.90;99.90;;;;;;4956797;28;20198;-79
2022/08/12 08:58:07;;;;;;;3.83;3.20;;;29.20;99.90;;;;;;4956636;28;20260;-79
2022/08/12 09:00:38;;;;;;;5.47;2.85;;;28.80;99.90;;;;;;4947554;29;20250;-83
2022/08/12 09:03:11;;;;;;;3.25;2.67;;;28.60;99.90;;;;;;4941935;28;20290;-83
2022/08/12 09:06:04;;;;;;;3.75;3.10;;;28.70;99.90;;;;;;4940420;29;20202;-82
2022/08/12 09:08:44;;;;;;;4.57;3.35;;;28.40;99.90;;;;;;4937579;29;20309;-78
2022/08/12 09:15:07;;;;;;;7.55;3.20;;;28.00;99.90;;;;;;4937273;28;20182;-80
2022/08/12 09:17:55;;;;;;;4.35;3.42;;;27.80;99.90;;;;;;4935524;28;20715;-77
2022/08/12 09:20:28;;;;;;;4.03;3.13;;;28.00;99.90;;;;;;4945143;29;20541;-79
2022/08/12 09:23:14;;;;;;;4.20;3.60;;;27.70;99.90;;;;;;4943678;28;20573;-79
2022/08/12 09:26:01;;;;;;;9.63;3.88;;;27.60;99.90;;;;;;4947094;28;20722;-81
2022/08/12 09:28:36;;;;;;;6.25;3.80;;;27.50;99.90;;;;;;4952611;28;20213;-83
2022/08/12 09:33:50;;;;;;;4.38;3.75;;;27.60;99.90;;;;;;4979629;23;20707;-80
2022/08/12 09:36:46;;;;;;;6.05;3.88;;;27.70;99.90;;;;;;4949979;28;20198;-82
2022/08/12 09:39:44;;;;;;;4.20;3.53;;;28.00;99.90;;;;;;4947764;28;20420;-80
2022/08/12 09:46:15;;;;;;;4.50;3.60;;;27.70;99.90;;;;;;4942471;29;20293;-81
2022/08/12 09:49:09;;;;;;;4.53;3.92;;;27.80;99.90;;;;;;4945043;28;20233;-80
2022/08/12 09:52:06;;;;;;;6.60;4.78;;;27.60;99.90;;;;;;5282687;23;20299;-78
2022/08/12 09:54:45;;;;;;;6.10;4.32;;;27.40;99.90;;;;;;4951413;28;20256;-79
2022/08/12 09:57:24;;;;;;;4.82;4.00;;;27.40;99.90;;;;;;4955674;28;20193;-83
2022/08/12 10:00:13;;;;;;;5.80;4.15;;;27.40;99.90;;;;;;4951948;28;20210;-80
2022/08/12 10:10:20;;;;;;;6.10;4.22;;;26.60;99.90;;;;;;4902262;29;20731;-78
2022/08/12 10:16:33;;;;;;;5.72;4.55;;;26.30;99.90;;;;;;4895598;29;20721;-81
2022/08/12 10:19:51;;;;;;;6.95;4.65;;;26.60;99.90;;;;;;4897483;29;20200;-83
2022/08/12 10:22:29;;;;;;;6.78;5.15;;;26.60;99.90;;;;;;4904101;29;20227;-85
2022/08/12 10:32:33;;;;;;;6.45;4.80;;;26.80;99.90;;;;;;4902827;29;20214;-81
2022/08/12 10:35:31;;;;;;;6.68;4.70;;;27.00;99.90;;;;;;4896462;29;20222;-81
2022/08/12 10:38:10;;;;;;;6.30;4.80;;;27.10;99.90;;;;;;4880429;29;20287;-84
2022/08/12 10:43:47;;;;;;;6.55;4.60;;;26.90;99.90;;;;;;4947132;29;20310;-80
2022/08/12 10:46:23;;;;;;;5.22;4.72;;;26.80;99.90;;;;;;4921972;29;20658;-81
2022/08/12 10:49:00;;;;;;;6.75;5.05;;;26.60;99.90;;;;;;4922477;29;20631;-79
2022/08/12 10:51:50;;;;;;;6.55;4.85;;;26.40;99.90;;;;;;4927111;29;20290;-79
2022/08/12 10:54:39;;;;;;;6.32;4.65;;;26.10;99.90;;;;;;4923296;29;20195;-79
2022/08/12 10:57:07;;;;;;;7.15;5.20;;;26.00;99.90;;;;;;4922649;29;20303;-80
2022/08/12 10:59:44;;;;;;;7.88;5.30;;;25.90;99.90;;;;;;4923142;29;20229;-82
2022/08/12 11:02:34;;;;;;;7.82;5.85;;;26.10;99.90;;;;;;4922354;29;20206;-81
2022/08/12 11:05:21;;;;;;;6.90;5.57;;;26.20;99.90;;;;;;4919820;29;20246;-82
2022/08/12 11:08:10;;;;;;;9.18;5.70;;;26.30;99.90;;;;;;4955231;29;20616;-82
2022/08/12 11:11:10;;;;;;;9.02;6.00;;;26.60;99.90;;;;;;4943091;29;20285;-80
2022/08/12 11:13:40;;;;;;;6.28;5.65;;;26.70;99.90;;;;;;4924506;29;20213;-79
2022/08/12 11:16:43;;;;;;;8.30;5.60;;;26.70;99.90;;;;;;4937177;29;20198;-80
2022/08/12 11:19:48;;;;;;;8.07;5.70;;;27.00;99.90;;;;;;4919635;29;20191;-83
2022/08/12 11:22:15;;;;;;;7.20;5.80;;;27.20;99.90;;;;;;4929824;29;20190;-80
2022/08/12 11:27:38;;;;;;;6.63;5.22;;;27.50;99.90;;;;;;4923001;29;20287;-81
2022/08/12 11:32:45;;;;;;;7.60;5.88;;;27.20;99.90;;;;;;5108103;23;20473;-79
2022/08/12 11:35:13;;;;;;;8.60;5.90;;;27.20;99.90;;;;;;4930379;28;20292;-76
2022/08/12 11:40:34;;;;;;;6.90;5.95;;;27.50;99.90;;;;;;4974789;23;20237;-80
2022/08/12 11:43:24;;;;;;;6.38;5.72;;;27.50;99.90;;;;;;5075842;23;20699;-78
2022/08/12 11:45:57;;;;;;;10.35;6.10;;;27.40;99.90;;;;;;4924373;29;20293;-79
2022/08/12 11:48:24;;;;;;;8.43;6.38;;;27.40;99.90;;;;;;4934742;29;20202;-79
2022/08/12 11:50:53;;;;;;;11.05;6.45;;;27.30;99.90;;;;;;4921394;29;20296;-80
2022/08/12 11:53:20;;;;;;;8.68;6.07;;;27.20;99.90;;;;;;4925102;29;20599;-79
2022/08/12 11:56:07;;;;;;;8.82;6.40;;;27.20;99.90;;;;;;4943620;29;20641;-80
2022/08/12 11:59:08;;;;;;;8.88;6.30;;;27.20;99.90;;;;;;4924567;23;20245;-81
2022/08/12 12:04:53;;;;;;;13.18;7.18;;;27.40;99.90;;;;;;5077742;23;20226;-83
2022/08/12 12:07:29;;;;;;;7.30;6.30;;;27.20;99.90;;;;;;4919919;29;20225;-84
2022/08/12 12:10:22;;;;;;;8.20;6.43;;;27.10;99.90;;;;;;4927745;29;20318;-77
2022/08/12 12:16:29;;;;;;;10.65;6.78;;;27.30;99.90;;;;;;4875764;29;20197;-79
2022/08/12 12:22:30;;;;;;;9.93;6.88;;;27.70;99.90;;;;;;4957467;23;20226;-81
2022/08/12 12:26:31;;;;;;;7.93;6.18;;;28.00;99.90;;;;;;4861452;23;20355;-80
2022/08/12 12:29:13;;;;;;;7.93;6.60;;;28.50;99.90;;;;;;4896405;29;20216;-80
2022/08/12 12:32:45;;;;;;;8.18;6.35;;;28.70;99.90;;;;;;4846059;29;20202;-82
2022/08/12 12:35:29;;;;;;;11.23;7.55;;;28.90;99.90;;;;;;4893582;29;20216;-81
2022/08/12 12:38:49;;;;;;;11.25;8.00;;;29.10;99.90;;;;;;4891753;29;20220;-80
2022/08/12 13:03:36;;;;;;;9.02;6.72;;;29.50;99.90;;;;;;4957312;23;20222;-84
2022/08/12 13:17:20;;;;;;;7.75;6.15;;;31.10;99.90;;;;;;4874004;29;20211;-82
2022/08/12 13:19:47;;;;;;;7.90;6.63;;;31.40;99.90;;;;;;4893250;23;20326;-80
2022/08/12 13:22:18;;;;;;;7.18;6.47;;;31.50;99.90;;;;;;4952981;29;20209;-80
2022/08/12 13:24:53;;;;;;;6.75;6.05;;;31.80;99.90;;;;;;4957095;29;20265;-82
2022/08/12 13:31:21;;;;;;;7.43;6.38;;;32.40;99.90;;;;;;5201787;23;20299;-80
2022/08/12 13:37:00;;;;;;;8.18;6.75;;;31.90;99.90;;;;;;5177771;23;20324;-80
2022/08/12 13:39:41;;;;;;;9.15;6.70;;;31.60;99.90;;;;;;4853767;29;20232;-80
2022/08/12 13:45:12;;;;;;;10.27;7.43;;;30.20;99.90;;;;;;4890685;29;20225;-77
2022/08/12 13:48:13;;;;;;;9.75;7.55;;;29.20;99.90;;;;;;4881737;29;20304;-79
2022/08/12 13:50:45;;;;;;;8.77;7.00;;;28.50;99.90;;;;;;4863417;29;20553;-81
2022/08/12 13:53:27;;;;;;;9.15;7.78;;;28.10;99.90;;;;;;4868194;29;20225;-80
2022/08/12 13:56:17;;;;;;;10.38;7.72;;;27.90;99.90;;;;;;4878656;29;20243;-80
2022/08/12 13:59:26;;;;;;;10.05;8.10;;;27.80;99.90;;;;;;4880643;29;20300;-81
2022/08/12 14:02:09;;;;;;;9.63;7.85;;;27.70;99.90;;;;;;4865854;29;20228;-79
2022/08/12 14:04:54;;;;;;;8.63;7.72;;;27.60;99.90;;;;;;4860167;29;20199;-78
2022/08/12 14:10:42;;;;;;;11.43;7.90;;;27.50;99.90;;;;;;5056402;23;20288;-82
2022/08/12 14:13:19;;;;;;;9.68;7.88;;;27.40;99.90;;;;;;4939794;29;20194;-82
2022/08/12 14:16:11;;;;;;;9.18;8.15;;;27.60;99.90;;;;;;4955938;29;20213;-80
2022/08/12 14:18:41;;;;;;;11.05;8.13;;;27.60;99.90;;;;;;4937227;29;20206;-79
2022/08/12 14:21:14;;;;;;;9.20;7.40;;;27.70;99.90;;;;;;4938466;29;20305;-79
2022/08/12 14:23:51;;;;;;;11.55;8.02;;;27.80;99.90;;;;;;4936959;29;20202;-80
2022/08/12 14:26:35;;;;;;;8.23;7.38;;;27.80;99.90;;;;;;4931707;29;20222;-80
2022/08/12 14:29:28;;;;;;;10.52;7.82;;;27.80;99.90;;;;;;4947925;29;20309;-87
2022/08/12 14:32:16;;;;;;;9.25;7.70;;;27.80;99.90;;;;;;4917828;29;20202;-78
2022/08/12 14:34:45;;;;;;;8.93;7.75;;;28.00;99.90;;;;;;4912609;29;20273;-84
2022/08/12 14:37:12;;;;;;;8.38;7.53;;;28.00;99.90;;;;;;4933700;29;20565;-80
2022/08/12 14:40:16;;;;;;;9.02;7.60;;;28.10;99.90;;;;;;4928960;29;20222;-83
2022/08/12 14:53:57;;;;;;;10.45;7.95;;;28.90;99.90;;;;;;4879175;29;20216;-83
2022/08/12 14:57:15;;;;;;;8.88;7.63;;;29.20;99.90;;;;;;4847781;29;20781;-80
2022/08/12 15:02:38;;;;;;;10.85;7.63;;;29.70;99.90;;;;;;4945768;29;20603;-78
2022/08/12 15:05:06;;;;;;;11.52;7.35;;;29.90;99.90;;;;;;4902642;29;20214;-79
2022/08/12 15:07:33;;;;;;;8.30;7.45;;;29.90;99.90;;;;;;4928080;29;20563;-80
2022/08/12 15:10:30;;;;;;;8.85;7.30;;;30.00;99.90;;;;;;4925896;29;20222;-81
2022/08/12 15:13:10;;;;;;;9.93;7.57;;;30.00;99.90;;;;;;4919226;29;20210;-78
2022/08/12 15:16:04;;;;;;;8.95;7.32;;;29.90;99.90;;;;;;4933461;29;20571;-77
2022/08/12 15:18:33;;;;;;;9.05;7.43;;;30.00;99.90;;;;;;4920738;29;20212;-80
2022/08/12 15:21:02;;;;;;;11.88;7.60;;;29.90;99.90;;;;;;4915997;29;20720;-79
2022/08/12 15:23:37;;;;;;;9.18;7.60;;;29.80;99.90;;;;;;4933517;29;20199;-75
2022/08/12 15:26:21;;;;;;;8.15;7.35;;;29.60;99.90;;;;;;4931866;29;20214;-77
2022/08/12 15:29:21;;;;;;;10.82;7.78;;;29.50;99.90;;;;;;4935748;29;20289;-77
2022/08/12 15:31:51;;;;;;;9.15;8.13;;;29.20;99.90;;;;;;4954191;29;20194;-82
2022/08/12 15:34:32;;;;;;;8.90;7.28;;;28.80;99.90;;;;;;4935083;29;20596;-80
2022/08/12 15:36:59;;;;;;;8.77;7.70;;;28.70;99.90;;;;;;4936713;29;20213;-78
2022/08/12 15:39:46;;;;;;;10.30;7.93;;;28.60;99.90;;;;;;4870085;29;20284;-79
2022/08/12 15:42:33;;;;;;;11.93;7.90;;;28.30;99.90;;;;;;4861011;29;20540;-78
2022/08/12 15:45:01;;;;;;;11.27;8.38;;;28.00;99.90;;;;;;4923588;23;20235;-77
2022/08/12 15:47:39;;;;;;;12.65;8.60;;;27.60;99.90;;;;;;4930549;29;20226;-83
2022/08/12 15:50:16;;;;;;;14.50;9.68;;;26.90;99.90;;;;;;4931548;29;20219;-79
2022/08/12 15:52:53;;;;;;;13.90;10.52;;;26.10;99.90;;;;;;4910729;29;20191;-77
2022/08/12 15:55:40;;;;;;;14.27;9.90;;;24.80;99.90;;;;;;4922976;29;20202;-80
2022/08/12 15:58:12;;;;;;;15.48;10.18;;;23.90;99.90;;;;;;4984515;23;20656;-79
2022/08/12 16:00:42;;;;;;;13.88;10.05;;;23.20;99.90;;;;;;4935298;29;20191;-76
2022/08/12 16:03:10;;;;;;;14.95;10.75;;;22.70;99.90;;;;;;4936502;29;20225;-78
2022/08/12 16:05:51;;;;;;;14.05;10.45;;;22.40;99.90;;;;;;4935873;28;20201;-77
2022/08/12 16:08:40;;;;;;;27.30;10.88;;;22.20;99.90;;;;;;4952223;28;20201;-78
2022/08/12 16:11:08;;;;;;;12.97;9.80;;;22.00;99.90;;;;;;4935860;28;20265;-79
2022/08/12 16:13:44;;;;;;;13.07;9.73;;;21.80;99.90;;;;;;4953356;29;20268;-80
2022/08/12 16:16:11;;;;;;;13.53;9.90;;;21.70;99.90;;;;;;4935917;29;20205;-81
2022/08/12 16:18:52;;;;;;;12.43;9.17;;;21.60;99.90;;;;;;4935901;29;20305;-79
2022/08/12 16:21:37;;;;;;;11.90;9.53;;;21.50;99.90;;;;;;4938143;29;20269;-80
2022/08/12 16:24:23;;;;;;;14.40;10.00;;;21.50;99.90;;;;;;4950847;23;20349;-79
2022/08/12 16:26:51;;;;;;;11.20;9.03;;;21.50;99.90;;;;;;4934216;29;20210;-78
2022/08/12 16:29:30;;;;;;;12.50;9.33;;;21.40;99.90;;;;;;4934798;29;20199;-78
2022/08/12 16:32:21;;;;;;;13.40;9.83;;;21.40;99.90;;;;;;4934936;29;20195;-77
2022/08/12 16:34:50;;;;;;;11.00;8.90;;;21.40;99.90;;;;;;4934667;29;20222;-82
2022/08/12 16:37:21;;;;;;;10.43;8.93;;;21.40;99.90;;;;;;4930637;29;20235;-77
2022/08/12 16:40:10;;;;;;;13.60;9.60;;;21.40;99.90;;;;;;4933478;29;20201;-79
2022/08/12 16:42:40;;;;;;;19.27;10.60;;;21.30;99.90;;;;;;4927066;29;20207;-80
2022/08/12 16:45:38;;;;;;;15.67;9.17;;;21.20;99.90;;;;;;4928536;29;20199;-79
2022/08/12 16:48:26;;;;;;;13.30;9.53;;;21.30;99.90;;;;;;4929010;29;20206;-80
2022/08/12 16:51:10;;;;;;;12.50;9.73;;;21.30;99.90;;;;;;4929842;29;20281;-77
2022/08/12 16:53:39;;;;;;;13.20;9.00;;;21.30;99.90;;;;;;4940035;29;20213;-81
2022/08/12 16:56:13;;;;;;;14.00;9.00;;;21.30;99.90;;;;;;4929250;29;20210;-84
2022/08/12 16:58:41;;;;;;;14.90;8.30;;;21.30;99.90;;;;;;4926349;29;20210;-80
2022/08/12 17:01:35;;;;;;;12.03;8.70;;;21.30;99.90;;;;;;4924858;29;20196;-83
2022/08/12 17:04:07;;;;;;;13.80;8.93;;;21.20;99.90;;;;;;4930257;29;20343;-83
2022/08/12 17:06:51;;;;;;;13.53;9.50;;;21.20;99.90;;;;;;4931260;29;20576;-82
2022/08/12 17:09:18;;;;;;;13.63;9.67;;;21.10;99.90;;;;;;4931836;29;20294;-82
2022/08/12 17:11:47;;;;;;;14.40;9.67;;;21.10;99.90;;;;;;4929853;29;20211;-80
2022/08/12 17:14:16;;;;;;;14.77;9.80;;;21.10;99.90;;;;;;4932313;29;20286;-81
2022/08/12 17:16:57;;;;;;;13.90;10.20;;;21.10;99.90;;;;;;4945394;23;20232;-83
2022/08/12 17:20:29;;;;;;;11.77;9.80;;;21.10;99.90;;;;;;4933248;23;20273;-81
2022/08/12 17:23:30;;;;;;;12.03;9.77;;;21.10;99.90;;;;;;4960709;28;20193;-82